createdAt,value
2022-11-24T00:00:22.935Z,98677.06
2022-11-24T00:05:44.816Z,98671.47
2022-11-24T00:10:46.627Z,98669.14
2022-11-24T00:15:48.370Z,98673.33
2022-11-24T00:20:53.348Z,98674.41
2022-11-24T00:25:55.434Z,98678.66
2022-11-24T00:30:57.340Z,98680.77
2022-11-24T00:36:00.430Z,98685.28
2022-11-24T00:41:02.170Z,98689.14
2022-11-24T00:46:04.379Z,98688.21
2022-11-24T00:51:10.060Z,98686.92
2022-11-24T00:56:12.123Z,98688.50
2022-11-24T01:01:18.077Z,98681.95
2022-11-24T01:06:26.548Z,98678.87
2022-11-24T01:11:50.595Z,98681.48
2022-11-24T01:16:52.686Z,98679.45
2022-11-24T01:21:54.523Z,98681.32
2022-11-24T01:26:56.300Z,98683.22
2022-11-24T01:31:58.027Z,98679.02
2022-11-24T01:36:59.780Z,98677.84
2022-11-24T01:42:01.653Z,98679.54
2022-11-24T01:47:12.295Z,98675.21
2022-11-24T01:52:33.006Z,98681.77
2022-11-24T01:57:59.346Z,98689.83
2022-11-24T02:03:01.280Z,98687.78
2022-11-24T02:08:04.619Z,98688.56
2022-11-24T02:13:06.425Z,98684.96
2022-11-24T02:18:08.214Z,98687.05
2022-11-24T02:23:42.011Z,98687.57
2022-11-24T02:28:43.864Z,98689.73
2022-11-24T02:33:46.616Z,98686.80
2022-11-24T02:38:48.894Z,98686.71
2022-11-24T02:44:01.343Z,98688.04
2022-11-24T02:49:03.141Z,98685.48
2022-11-24T02:54:04.900Z,98689.20
2022-11-24T02:59:06.674Z,98691.17
2022-11-24T03:04:08.472Z,98691.11
2022-11-24T03:09:11.027Z,98687.86
2022-11-24T03:14:12.908Z,98694.55
2022-11-24T03:19:14.642Z,98697.84
2022-11-24T03:24:16.468Z,98696.63
2022-11-24T03:29:18.352Z,98696.04
2022-11-24T03:34:20.124Z,98705.11
2022-11-24T03:39:21.947Z,98705.36
2022-11-24T03:44:23.701Z,98696.52
2022-11-24T03:49:25.467Z,98693.77
2022-11-24T03:54:27.530Z,98695.91
2022-11-24T03:59:29.298Z,98704.41
2022-11-24T04:04:31.188Z,98707.39
2022-11-24T04:09:33.040Z,98707.59
2022-11-24T04:14:35.586Z,98715.29
2022-11-24T04:19:37.610Z,98714.88
2022-11-24T04:24:39.343Z,98721.20
2022-11-24T04:29:41.059Z,98724.02
2022-11-24T04:34:43.344Z,98724.67
2022-11-24T04:39:45.956Z,98721.71
2022-11-24T04:44:47.704Z,98722.08
2022-11-24T04:49:49.925Z,98718.75
2022-11-24T04:54:52.302Z,98721.88
2022-11-24T04:59:54.665Z,98727.42
2022-11-24T05:04:56.423Z,98732.29
2022-11-24T05:10:17.027Z,98736.19
2022-11-24T05:15:18.687Z,98739.53
2022-11-24T05:20:21.017Z,98742.73
2022-11-24T05:25:22.685Z,98742.11
2022-11-24T05:30:24.638Z,98744.41
2022-11-24T05:35:26.538Z,98746.86
2022-11-24T05:40:28.196Z,98749.83
2022-11-24T05:45:29.915Z,98756.02
2022-11-24T05:50:32.101Z,98754.42
2022-11-24T05:55:35.001Z,98751.15
2022-11-24T06:00:36.938Z,98758.08
2022-11-24T06:05:38.847Z,98763.30
2022-11-24T06:10:40.484Z,98763.16
2022-11-24T06:15:42.129Z,98764.88
2022-11-24T06:20:53.139Z,98767.30
2022-11-24T06:26:06.056Z,98771.14
2022-11-24T06:31:10.110Z,98778.04
2022-11-24T06:36:14.377Z,98779.61
2022-11-24T06:41:16.385Z,98778.89
2022-11-24T06:46:18.563Z,98788.77
2022-11-24T06:51:20.232Z,98787.84
2022-11-24T06:56:22.108Z,98788.83
2022-11-24T07:01:27.665Z,98792.80
2022-11-24T07:06:29.382Z,98797.02
2022-11-24T07:11:30.969Z,98802.42
2022-11-24T07:16:33.151Z,98800.14
2022-11-24T07:21:34.809Z,98801.35
2022-11-24T07:26:37.431Z,98810.30
2022-11-24T07:31:39.374Z,98809.73
2022-11-24T07:36:42.334Z,98814.70
2022-11-24T07:41:43.959Z,98820.02
2022-11-24T07:46:46.062Z,98824.63
2022-11-24T07:51:47.772Z,98823.84
2022-11-24T07:56:49.369Z,98819.13
2022-11-24T08:01:51.579Z,98819.59
2022-11-24T08:06:53.313Z,98822.90
2022-11-24T08:11:54.959Z,98827.05
2022-11-24T08:16:57.994Z,98828.77
2022-11-24T08:22:00.419Z,98830.13
2022-11-24T08:27:02.436Z,98834.60
2022-11-24T08:32:04.581Z,98837.56
2022-11-24T08:37:06.349Z,98837.09
2022-11-24T08:42:08.003Z,98836.88
2022-11-24T08:47:09.664Z,98836.88
2022-11-24T08:52:11.262Z,98843.27
2022-11-24T08:57:21.454Z,98847.13
2022-11-24T09:02:23.680Z,98848.06
2022-11-24T09:07:25.369Z,98842.42
2022-11-24T09:12:27.723Z,98842.45
2022-11-24T09:17:29.333Z,98844.64
2022-11-24T09:22:31.647Z,98849.18
2022-11-24T09:27:33.301Z,98854.90
2022-11-24T09:32:34.925Z,98856.83
2022-11-24T09:37:36.597Z,98857.36
2022-11-24T09:42:45.237Z,98866.14
2022-11-24T09:48:02.591Z,98870.19
2022-11-24T09:53:31.767Z,98874.15
2022-11-24T09:58:51.190Z,98869.34
2022-11-24T10:03:54.270Z,98877.10
2022-11-24T10:09:30.526Z,98882.95
2022-11-24T10:15:40.212Z,98878.65
2022-11-24T10:21:05.240Z,98880.99
2022-11-24T10:26:30.533Z,98880.05
2022-11-24T10:31:38.694Z,98882.48
2022-11-24T10:36:46.668Z,98889.39
2022-11-24T10:42:42.127Z,98894.56
2022-11-24T10:47:45.095Z,98892.44
2022-11-24T10:53:07.607Z,98900.46
2022-11-24T10:58:16.647Z,98905.96
2022-11-24T11:03:26.466Z,98906.15
2022-11-24T11:08:31.405Z,98905.73
2022-11-24T11:13:33.073Z,98907.73
2022-11-24T11:18:35.520Z,98902.96
2022-11-24T11:23:45.496Z,98905.89
2022-11-24T11:34:34.647Z,98910.43
2022-11-24T11:39:45.382Z,98909.18
2022-11-24T11:45:05.001Z,98911.36
2022-11-24T11:50:24.018Z,98915.42
2022-11-24T11:55:50.203Z,98918.63
2022-11-24T12:01:36.887Z,98922.70
2022-11-24T12:06:53.899Z,98919.77
2022-11-24T12:12:45.836Z,98918.29
2022-11-24T12:18:57.100Z,98922.11
2022-11-24T12:24:37.212Z,98926.18
2022-11-24T12:30:09.093Z,98927.19
2022-11-24T12:35:35.264Z,98923.40
2022-11-24T12:41:33.528Z,98926.89
2022-11-24T12:46:40.295Z,98929.23
2022-11-24T12:51:47.653Z,98931.55
2022-11-24T12:57:12.905Z,98938.48
2022-11-24T13:02:39.289Z,98939.80
2022-11-24T13:07:57.007Z,98940.54
2022-11-24T13:13:03.379Z,98937.90
2022-11-24T13:18:44.645Z,98934.71
2022-11-24T13:29:33.790Z,98940.77
2022-11-24T13:34:38.313Z,98945.77
2022-11-24T13:40:02.987Z,98950.70
2022-11-24T13:45:28.888Z,98951.17
2022-11-24T13:50:50.754Z,98953.89
2022-11-24T13:56:00.368Z,98953.80
2022-11-24T14:01:03.474Z,98957.29
2022-11-24T14:06:05.539Z,98954.00
2022-11-24T14:11:18.074Z,98961.48
2022-11-24T14:16:23.149Z,98961.77
2022-11-24T14:21:43.764Z,98967.94
2022-11-24T14:26:46.898Z,98976.05
2022-11-24T14:31:57.700Z,98980.63
2022-11-24T14:37:00.870Z,98987.41
2022-11-24T14:42:25.070Z,98990.66
2022-11-24T14:47:43.839Z,98995.23
2022-11-24T14:52:55.869Z,99004.73
2022-11-24T14:57:59.554Z,99008.82
2022-11-24T15:03:01.231Z,99009.85
2022-11-24T15:08:03.205Z,99016.24
2022-11-24T15:13:22.129Z,99018.83
2022-11-24T15:18:34.783Z,99025.30
2022-11-24T15:23:37.334Z,99030.92
2022-11-24T15:28:39.972Z,99036.86
2022-11-24T15:33:41.857Z,99046.35
2022-11-24T15:38:43.465Z,99048.55
2022-11-24T15:43:45.362Z,99053.71
2022-11-24T15:48:47.044Z,99060.36
2022-11-24T15:54:00.391Z,99064.55
2022-11-24T15:59:03.897Z,99065.08
2022-11-24T16:04:05.574Z,99069.86
2022-11-24T16:09:15.801Z,99075.89
2022-11-24T16:14:17.489Z,99081.16
2022-11-24T16:19:19.123Z,99082.98
2022-11-24T16:24:20.781Z,99082.72
2022-11-24T16:29:24.099Z,99081.05
2022-11-24T16:34:25.678Z,99090.64
2022-11-24T16:39:27.312Z,99094.73
2022-11-24T16:44:29.038Z,99098.30
2022-11-24T16:49:30.726Z,99101.17
2022-11-24T16:54:32.585Z,99099.88
2022-11-24T16:59:34.687Z,99100.38
2022-11-24T17:04:36.566Z,99112.42
2022-11-24T17:09:40.801Z,99115.58
2022-11-24T17:14:44.345Z,99128.78
2022-11-24T17:19:51.761Z,99132.77
2022-11-24T17:24:53.382Z,99135.03
2022-11-24T17:29:54.997Z,99139.32
2022-11-24T17:34:56.592Z,99141.10
2022-11-24T17:40:20.640Z,99148.14
2022-11-24T17:45:20.229Z,99154.09
2022-11-24T17:50:25.780Z,99155.32
2022-11-24T17:55:27.850Z,99162.69
2022-11-24T18:00:29.725Z,99156.92
2022-11-24T18:05:36.100Z,99162.20
2022-11-24T18:10:38.248Z,99169.73
2022-11-24T18:15:40.493Z,99174.87
2022-11-24T18:20:42.085Z,99180.97
2022-11-24T18:25:43.686Z,99179.91
2022-11-24T18:30:45.424Z,99184.66
2022-11-24T18:36:01.214Z,99185.80
2022-11-24T18:41:04.751Z,99188.24
2022-11-24T18:46:10.957Z,99190.05
2022-11-24T18:51:17.067Z,99191.86
2022-11-24T18:56:18.728Z,99193.77
2022-11-24T19:01:28.154Z,99197.58
2022-11-24T19:06:33.140Z,99202.13
2022-11-24T19:11:38.407Z,99205.85
2022-11-24T19:16:41.052Z,99211.04
2022-11-24T19:21:42.847Z,99215.31
2022-11-24T19:26:44.776Z,99216.43
2022-11-24T19:31:47.308Z,99221.58
2022-11-24T19:36:48.993Z,99224.39
2022-11-24T19:41:52.424Z,99224.17
2022-11-24T19:46:54.045Z,99228.79
2022-11-24T19:51:55.646Z,99227.87
2022-11-24T19:56:57.251Z,99233.27
2022-11-24T20:01:59.522Z,99242.30
2022-11-24T20:07:01.295Z,99248.05
2022-11-24T20:12:03.416Z,99255.02
2022-11-24T20:17:06.093Z,99261.77
2022-11-24T20:22:07.698Z,99264.54
2022-11-24T20:27:09.440Z,99268.76
2022-11-24T20:32:16.787Z,99273.61
2022-11-24T20:37:18.367Z,99279.15
2022-11-24T20:42:20.031Z,99282.00
2022-11-24T20:47:21.638Z,99284.43
2022-11-24T20:52:23.244Z,99285.23
2022-11-24T20:57:24.846Z,99295.14
2022-11-24T21:02:26.672Z,99297.17
2022-11-24T21:07:28.513Z,99299.57
2022-11-24T21:12:30.147Z,99305.25
2022-11-24T21:17:31.997Z,99312.84
2022-11-24T21:22:34.840Z,99317.13
2022-11-24T21:27:36.440Z,99314.02
2022-11-24T21:32:38.051Z,99308.42
2022-11-24T21:37:39.674Z,99304.48
2022-11-24T21:42:41.286Z,99307.73
2022-11-24T21:47:45.771Z,99311.41
2022-11-24T21:52:47.393Z,99317.01
2022-11-24T21:57:48.955Z,99313.17
2022-11-24T22:02:50.609Z,99322.70
2022-11-24T22:07:52.557Z,99322.55
2022-11-24T22:12:54.641Z,99320.05
2022-11-24T22:17:57.365Z,99327.57
2022-11-24T22:22:58.977Z,99330.89
2022-11-24T22:28:00.584Z,99332.53
2022-11-24T22:33:02.175Z,99325.84
2022-11-24T22:38:03.738Z,99322.27
2022-11-24T22:43:05.395Z,99322.98
2022-11-24T22:48:07.007Z,99326.44
2022-11-24T22:53:08.733Z,99327.40
2022-11-24T22:58:10.327Z,99327.48
2022-11-24T23:03:12.121Z,99327.52
2022-11-24T23:08:13.910Z,99328.02
2022-11-24T23:13:15.557Z,99330.54
2022-11-24T23:18:17.149Z,99333.87
2022-11-24T23:23:18.741Z,99340.45
2022-11-24T23:28:20.349Z,99350.14
2022-11-24T23:33:21.947Z,99347.89
2022-11-24T23:38:29.403Z,99355.40
2022-11-24T23:43:32.938Z,99359.27
2022-11-24T23:48:35.287Z,99362.00
2022-11-24T23:53:37.020Z,99361.16
2022-11-24T23:58:38.752Z,99367.08
